world map with EGXE marked

EGXE - Airport

This information may not be accurate or current and is not valid for navigation or flight planning. No warranty of fitness for any purpose is made or implied.

flag of Englandflag of United Kingdom

Donate via PayPal

Additional information is available on the NEW Great Circle Mapper

Location
City:  Leeming, Yorkshire, England, United Kingdom
ICAO:EGXE

Details
Type:Airport (Aerodrome, Airfield)
Use:Military
Latitude:54°17'33"N (54.292383)
Longitude:1°32'07"W (-1.535399)
Datum:WGS 1984
Elevation:132 ft (40 m)
Runways:1
Longest:7520 × 150 ft (2292 × 45.5 m)

Time
Timezone:UTC+0 (DST+3)
Local Time:

Weather
METAR:EGXE  041350Z 28017KT 9999 FEW028 09/01 Q1012 BLU NOSIG
TAF:EGXE  (expired)

Related Locations
Nearby:
Farthest:NZBA: 11756 mi / 18920 km
Balclutha, OTA, NZ

Find:

   beyond  
but within

Other Information
Maps:
Sources:

  

Airport Diagram

Airport diagram for EGXE

Airport diagram (OBSOLETE) from NGA

 


Great Circle Mapper   Great Circle Mapper
Great Circle Mapper FAQ   Great Circle Mapper FAQ
  Karl's Home Page
KLSē   KLSē Home
   GC on Facebook
Airlines of the World   Airlines of the World
Donate via PayPal


Copyright © 2004-2020, Karl L. Swartz. All rights reserved.
All trademarks mentioned herein belong to their respective owners.

Please see credits for attribution and copyright information.

Karl Swartz <karl@kls2.com>
  Powered by FreeBSD
Valid HTML 4.01!
Labeled with ICRA
hCard Microformat
Geo Microformat